Time;durP1;ratioP1;P1;durP2;ratioP2;P2;SDS_P1;SDS_P2;PMS_P1;PMS_P2;Temp;Humidity;BMP_temperature;BMP_pressure;BME280_temperature;BME280_humidity;BME280_pressure;Samples;Min_cycle;Max_cycle;Signal;HPM_P1;HPM_P2
2021/08/12 00:00:20;;;;;;;10.50;8.43;;;;;;;15.64;89.95;101267.94;687045;28;1475;-54
2021/08/12 00:00:40;;;;;;;11.00;8.65;;;;;;;15.61;89.56;101275.91;688934;28;1880;-57
2021/08/12 00:01:00;;;;;;;11.10;8.60;;;;;;;15.58;89.87;101270.69;687892;28;5502;-55
2021/08/12 00:01:22;;;;;;;10.65;8.27;;;;;;;15.56;89.83;101272.50;687614;28;1405;-57
2021/08/12 00:01:42;;;;;;;11.38;8.70;;;;;;;15.55;89.79;101269.84;687452;28;1989;-57
2021/08/12 00:02:03;;;;;;;9.70;8.70;;;;;;;15.53;90.00;101267.25;691926;28;4371;-54
2021/08/12 00:02:23;;;;;;;9.48;8.48;;;;;;;15.56;89.65;101272.50;693995;28;1646;-54
2021/08/12 00:02:44;;;;;;;10.57;8.57;;;;;;;15.58;89.66;101273.34;694290;28;1664;-53
2021/08/12 00:03:04;;;;;;;10.37;8.40;;;;;;;15.59;89.33;101275.09;694609;28;1399;-55
2021/08/12 00:03:24;;;;;;;9.30;8.13;;;;;;;15.60;89.58;101271.56;695570;28;1502;-56
2021/08/12 00:03:45;;;;;;;10.38;8.60;;;;;;;15.56;89.99;101271.59;695156;28;1570;-57
2021/08/12 00:04:06;;;;;;;10.38;8.60;;;;;;;15.54;90.11;101270.78;694300;28;4447;-56
2021/08/12 00:04:26;;;;;;;10.60;8.67;;;;;;;15.57;89.31;101274.22;692234;28;1438;-56
2021/08/12 00:04:47;;;;;;;10.00;8.05;;;;;;;15.62;89.11;101272.38;693221;28;1900;-53
2021/08/12 00:05:08;;;;;;;9.73;8.70;;;;;;;15.64;89.67;101275.84;692080;28;4120;-56
2021/08/12 00:05:29;;;;;;;9.20;8.30;;;;;;;15.65;89.07;101272.34;691391;28;1339;-54
2021/08/12 00:05:49;;;;;;;9.07;8.10;;;;;;;15.66;88.94;101268.81;692958;28;2025;-56
2021/08/12 00:06:09;;;;;;;10.43;7.87;;;;;;;15.69;88.68;101269.63;693526;28;1246;-56
2021/08/12 00:06:30;;;;;;;9.80;8.30;;;;;;;15.66;89.10;101267.94;694733;28;1159;-55
2021/08/12 00:06:50;;;;;;;9.40;8.40;;;;;;;15.65;88.89;101276.75;694691;28;1291;-56
2021/08/12 00:07:10;;;;;;;10.40;8.20;;;;;;;15.65;89.15;101274.09;693743;28;4574;-57
2021/08/12 00:07:31;;;;;;;10.43;7.80;;;;;;;15.63;89.39;101270.59;693764;28;1649;-57
2021/08/12 00:07:51;;;;;;;10.50;7.87;;;;;;;15.63;89.21;101260.06;692333;28;3406;-56
2021/08/12 00:08:12;;;;;;;10.33;8.40;;;;;;;15.61;89.30;101268.00;694278;28;4007;-57
2021/08/12 00:08:32;;;;;;;10.02;8.27;;;;;;;15.59;89.33;101263.66;693100;28;1723;-55
2021/08/12 00:08:53;;;;;;;10.57;8.47;;;;;;;15.57;89.63;101271.59;696063;28;1890;-56
2021/08/12 00:09:14;;;;;;;10.30;8.25;;;;;;;15.58;89.45;101269.84;696063;28;1060;-53
2021/08/12 00:09:34;;;;;;;9.07;8.00;;;;;;;15.56;89.85;101268.97;695437;28;1461;-54
2021/08/12 00:09:56;;;;;;;9.60;8.60;;;;;;;15.51;90.12;101266.44;691179;28;1381;-56
2021/08/12 00:10:17;;;;;;;9.95;8.20;;;;;;;15.48;89.80;101267.34;686907;28;4659;-58
2021/08/12 00:10:37;;;;;;;9.43;8.40;;;;;;;15.47;89.97;101264.72;687428;28;1440;-56
2021/08/12 00:10:57;;;;;;;10.27;8.52;;;;;;;15.48;89.88;101267.34;687299;28;4165;-57
2021/08/12 00:11:18;;;;;;;10.00;8.60;;;;;;;15.48;89.88;101263.84;687304;28;1617;-56
2021/08/12 00:11:39;;;;;;;10.00;8.50;;;;;;;15.45;90.36;101263.88;686705;28;1586;-57
2021/08/12 00:11:59;;;;;;;9.85;8.40;;;;;;;15.42;90.54;101261.28;690039;28;1152;-55
2021/08/12 00:12:19;;;;;;;9.68;8.60;;;;;;;15.42;90.39;101266.56;690047;28;1462;-56
2021/08/12 00:12:40;;;;;;;10.60;8.93;;;;;;;15.46;89.64;101262.97;690877;28;1337;-55
2021/08/12 00:13:00;;;;;;;10.33;8.70;;;;;;;15.47;89.88;101262.09;689345;28;4375;-53
2021/08/12 00:13:21;;;;;;;9.23;8.10;;;;;;;15.48;89.93;101266.47;689857;28;1578;-57
2021/08/12 00:13:42;;;;;;;9.77;8.35;;;;;;;15.48;89.53;101261.22;689185;28;3793;-55
2021/08/12 00:14:02;;;;;;;9.37;8.03;;;;;;;15.50;89.23;101269.94;691117;28;4411;-57
2021/08/12 00:14:23;;;;;;;9.47;8.30;;;;;;;15.52;89.48;101267.28;692506;28;1574;-56
2021/08/12 00:14:43;;;;;;;9.27;8.05;;;;;;;15.55;89.38;101265.47;691234;28;1727;-56
2021/08/12 00:15:04;;;;;;;9.77;8.10;;;;;;;15.55;89.12;101268.13;688119;28;1024;-57
2021/08/12 00:15:25;;;;;;;8.80;7.80;;;;;;;15.56;88.83;101264.59;689400;28;1779;-57
2021/08/12 00:15:46;;;;;;;9.23;7.72;;;;;;;15.62;88.58;101268.91;688805;28;1084;-53
2021/08/12 00:16:06;;;;;;;9.77;7.90;;;;;;;15.65;88.34;101274.97;690715;28;4636;-56
2021/08/12 00:16:26;;;;;;;10.37;8.10;;;;;;;15.63;88.96;101266.22;687702;28;1898;-56
2021/08/12 00:16:47;;;;;;;10.88;8.10;;;;;;;15.60;89.04;101274.19;688419;28;2897;-56
2021/08/12 00:17:07;;;;;;;10.10;8.30;;;;;;;15.57;89.22;101278.63;690923;28;4157;-57
2021/08/12 00:17:27;;;;;;;9.53;8.53;;;;;;;15.53;89.57;101274.31;690086;28;1799;-58
2021/08/12 00:17:48;;;;;;;9.65;8.40;;;;;;;15.50;89.46;101264.69;690521;28;1984;-56
2021/08/12 00:18:08;;;;;;;11.37;8.63;;;;;;;15.51;89.53;101271.69;690869;28;1822;-56
2021/08/12 00:18:30;;;;;;;10.23;8.57;;;;;;;15.50;89.37;101265.53;693298;28;1837;-55
2021/08/12 00:18:55;;;;;;;9.20;8.30;;;;;;;15.46;89.84;101262.97;692696;28;1832;-53
2021/08/12 00:19:15;;;;;;;9.60;8.60;;;;;;;15.46;89.65;101270.88;691870;28;4525;-57
2021/08/12 00:19:38;;;;;;;9.73;8.70;;;;;;;15.43;89.82;101269.16;693186;28;1335;-55
2021/08/12 00:19:58;;;;;;;9.43;8.43;;;;;;;15.39;90.11;101270.09;692795;28;4097;-56
2021/08/12 00:20:19;;;;;;;9.97;8.40;;;;;;;15.37;90.14;101268.38;691505;28;1575;-56
2021/08/12 00:20:39;;;;;;;10.25;8.57;;;;;;;15.35;89.98;101270.19;692323;28;2534;-54
2021/08/12 00:21:00;;;;;;;10.53;8.63;;;;;;;15.35;89.88;101272.81;692957;28;1937;-58
2021/08/12 00:21:22;;;;;;;9.38;8.25;;;;;;;15.30;89.95;101271.13;692905;28;1264;-56
2021/08/12 00:21:43;;;;;;;10.23;8.50;;;;;;;15.30;90.09;101270.25;692734;28;2056;-56
2021/08/12 00:22:03;;;;;;;9.20;8.15;;;;;;;15.29;90.52;101274.63;691396;28;4572;-54
2021/08/12 00:22:24;;;;;;;9.53;8.50;;;;;;;15.24;90.61;101263.28;690078;28;1272;-56
2021/08/12 00:22:44;;;;;;;9.80;8.80;;;;;;;15.22;90.74;101269.50;690886;28;3965;-56
2021/08/12 00:23:05;;;;;;;10.27;8.67;;;;;;;15.22;90.74;101259.81;689684;28;4287;-54
2021/08/12 00:23:27;;;;;;;10.50;8.55;;;;;;;15.21;90.81;101265.97;687074;28;1664;-52
2021/08/12 00:23:47;;;;;;;10.30;9.20;;;;;;;15.17;91.01;101264.28;688221;28;1720;-57
2021/08/12 00:24:08;;;;;;;10.57;9.43;;;;;;;15.17;90.97;101268.69;687268;28;1314;-55
2021/08/12 00:24:28;;;;;;;10.63;8.97;;;;;;;15.15;90.95;101268.72;690593;28;1448;-56
2021/08/12 00:24:49;;;;;;;9.50;8.50;;;;;;;15.19;90.70;101269.53;691149;28;1006;-56
2021/08/12 00:25:09;;;;;;;9.77;8.17;;;;;;;15.26;90.36;101265.94;692033;28;4485;-57
2021/08/12 00:25:30;;;;;;;9.32;8.25;;;;;;;15.34;90.00;101266.69;695783;28;1611;-55
2021/08/12 00:25:52;;;;;;;9.30;8.03;;;;;;;15.38;89.86;101264.84;695054;28;4080;-56
2021/08/12 00:26:12;;;;;;;9.25;8.15;;;;;;;15.39;89.78;101269.25;695859;28;1492;-57
2021/08/12 00:26:33;;;;;;;9.20;8.20;;;;;;;15.38;89.95;101264.84;694741;28;1477;-57
2021/08/12 00:26:54;;;;;;;9.75;8.50;;;;;;;15.35;90.20;101276.31;694620;28;1324;-56
2021/08/12 00:27:15;;;;;;;10.48;8.75;;;;;;;15.35;90.33;101264.91;695635;28;2099;-53
2021/08/12 00:27:35;;;;;;;9.02;7.95;;;;;;;15.35;90.20;101271.03;692647;28;1490;-55
2021/08/12 00:27:56;;;;;;;9.40;8.40;;;;;;;15.37;90.13;101263.09;692779;28;1495;-57
2021/08/12 00:28:16;;;;;;;9.30;8.10;;;;;;;15.37;89.81;101274.53;692129;28;4514;-57
2021/08/12 00:28:36;;;;;;;9.73;8.43;;;;;;;15.37;90.03;101271.00;693009;28;3488;-54
2021/08/12 00:28:57;;;;;;;10.57;8.83;;;;;;;15.35;90.46;101262.28;690698;28;4755;-56
2021/08/12 00:29:18;;;;;;;11.20;8.82;;;;;;;15.36;90.04;101270.16;688227;28;1752;-56
2021/08/12 00:29:38;;;;;;;9.70;8.40;;;;;;;15.37;89.97;101266.63;691000;28;1328;-57
2021/08/12 00:29:59;;;;;;;10.07;8.47;;;;;;;15.35;90.45;101272.81;691417;28;1379;-56
2021/08/12 00:30:19;;;;;;;9.77;8.52;;;;;;;15.32;90.50;101277.22;691098;28;1151;-57
2021/08/12 00:30:40;;;;;;;10.20;8.80;;;;;;;15.32;90.22;101268.47;689264;28;1560;-58
2021/08/12 00:31:00;;;;;;;9.98;8.60;;;;;;;15.31;90.48;101277.25;688503;28;4467;-56
2021/08/12 00:31:21;;;;;;;9.80;8.37;;;;;;;15.28;90.28;101272.88;690836;28;1772;-55
2021/08/12 00:31:41;;;;;;;9.57;8.57;;;;;;;15.29;90.36;101277.28;684881;28;4447;-56
2021/08/12 00:32:02;;;;;;;10.10;8.70;;;;;;;15.31;90.05;101275.50;682770;28;1612;-57
2021/08/12 00:32:25;;;;;;;9.63;8.57;;;;;;;15.32;89.96;101277.22;679889;28;2346;-57
2021/08/12 00:32:45;;;;;;;10.30;8.70;;;;;;;15.31;90.43;101272.88;679761;28;2068;-57
2021/08/12 00:33:06;;;;;;;10.30;9.20;;;;;;;15.29;90.50;101277.28;682687;28;1363;-56
2021/08/12 00:33:26;;;;;;;10.33;9.23;;;;;;;15.28;90.40;101275.53;685763;28;1824;-57
2021/08/12 00:33:47;;;;;;;10.07;8.97;;;;;;;15.27;90.53;101273.81;688663;28;1297;-55
2021/08/12 00:34:08;;;;;;;9.67;8.70;;;;;;;15.26;90.66;101273.84;690772;28;4599;-57
2021/08/12 00:34:29;;;;;;;10.27;9.27;;;;;;;15.25;90.79;101277.34;693141;28;3173;-57
2021/08/12 00:34:50;;;;;;;10.30;8.98;;;;;;;15.22;90.83;101275.63;690638;28;4563;-57
2021/08/12 00:35:10;;;;;;;10.40;8.80;;;;;;;15.19;90.57;101270.41;690328;28;1645;-56
2021/08/12 00:35:31;;;;;;;9.60;8.60;;;;;;;15.15;90.78;101268.72;689941;28;1317;-56
2021/08/12 00:35:54;;;;;;;9.95;8.63;;;;;;;15.15;91.10;101269.56;684045;28;1864;-57
2021/08/12 00:36:16;;;;;;;10.38;8.93;;;;;;;15.18;91.07;101279.19;684709;28;1633;-56
2021/08/12 00:36:37;;;;;;;10.90;8.93;;;;;;;15.19;91.03;101270.41;684653;28;1329;-57
2021/08/12 00:37:01;;;;;;;10.18;8.90;;;;;;;15.23;90.64;101279.13;685680;28;4669;-56
2021/08/12 00:37:22;;;;;;;9.32;8.30;;;;;;;15.26;90.39;101277.31;685920;28;1691;-55
2021/08/12 00:37:43;;;;;;;10.70;8.73;;;;;;;15.28;90.42;101277.31;685826;28;1663;-57
2021/08/12 00:38:04;;;;;;;10.50;8.65;;;;;;;15.26;90.65;101276.47;684093;28;1475;-56
2021/08/12 00:38:26;;;;;;;9.75;8.73;;;;;;;15.24;90.60;101268.56;684262;28;1576;-56
2021/08/12 00:38:48;;;;;;;10.30;8.60;;;;;;;15.26;90.32;101274.69;683148;28;1682;-56
2021/08/12 00:39:08;;;;;;;10.15;8.50;;;;;;;15.29;90.22;101277.28;683166;28;4204;-53
2021/08/12 00:39:32;;;;;;;9.57;8.45;;;;;;;15.28;90.10;101277.31;685558;28;1451;-57
2021/08/12 00:39:52;;;;;;;10.70;8.50;;;;;;;15.30;90.02;101275.53;684168;28;1624;-57
2021/08/12 00:40:16;;;;;;;12.90;8.88;;;;;;;15.27;90.79;101271.19;683402;28;4627;-57
2021/08/12 00:40:37;;;;;;;10.15;8.63;;;;;;;15.26;90.25;101272.06;681829;28;1782;-56
2021/08/12 00:40:58;;;;;;;9.77;8.77;;;;;;;15.27;90.73;101280.81;681545;28;1637;-56
2021/08/12 00:41:21;;;;;;;9.90;8.88;;;;;;;15.23;90.73;101277.38;685525;28;1763;-56
2021/08/12 00:41:41;;;;;;;10.18;8.98;;;;;;;15.23;90.66;101279.13;686058;28;1923;-55
2021/08/12 00:42:03;;;;;;;10.35;9.25;;;;;;;15.21;90.68;101279.16;686638;28;1779;-56
2021/08/12 00:42:24;;;;;;;10.15;9.02;;;;;;;15.23;90.66;101276.50;685727;28;2198;-54
2021/08/12 00:42:44;;;;;;;10.63;9.00;;;;;;;15.20;90.86;101269.50;685908;28;1651;-57
2021/08/12 00:43:05;;;;;;;9.80;8.73;;;;;;;15.21;91.04;101270.38;686355;28;4606;-57
2021/08/12 00:43:26;;;;;;;10.20;8.55;;;;;;;15.20;91.06;101272.13;687696;28;3645;-56
2021/08/12 00:43:47;;;;;;;9.48;8.50;;;;;;;15.19;91.18;101274.78;683540;28;4211;-58
2021/08/12 00:44:07;;;;;;;10.60;8.70;;;;;;;15.17;91.28;101282.72;685194;28;1624;-55
2021/08/12 00:44:29;;;;;;;10.95;8.70;;;;;;;15.19;90.42;101274.78;684553;28;1852;-55
2021/08/12 00:44:49;;;;;;;9.93;8.70;;;;;;;15.21;90.52;101281.78;684272;28;1667;-57
2021/08/12 00:45:10;;;;;;;10.37;8.80;;;;;;;15.24;90.35;101279.09;686307;28;1871;-57
2021/08/12 00:45:30;;;;;;;9.63;8.57;;;;;;;15.28;90.05;101280.78;684996;28;2261;-55
2021/08/12 00:45:51;;;;;;;10.63;8.50;;;;;;;15.27;90.36;101273.81;688009;28;1778;-58
2021/08/12 00:46:11;;;;;;;10.32;8.63;;;;;;;15.24;90.45;101270.34;686501;28;4481;-57
2021/08/12 00:46:32;;;;;;;10.60;8.50;;;;;;;15.22;90.67;101274.78;685638;28;1371;-56
2021/08/12 00:46:52;;;;;;;9.70;8.50;;;;;;;15.20;90.79;101269.50;687469;28;2041;-55
2021/08/12 00:47:14;;;;;;;9.63;8.63;;;;;;;15.20;90.87;101279.16;687104;28;1530;-56
2021/08/12 00:47:35;;;;;;;10.02;8.93;;;;;;;15.16;91.16;101275.72;685744;28;1441;-55
2021/08/12 00:47:56;;;;;;;11.18;9.63;;;;;;;15.11;91.25;101273.13;683285;28;4474;-57
2021/08/12 00:48:16;;;;;;;10.30;9.20;;;;;;;15.09;91.22;101268.78;685310;28;1673;-55
2021/08/12 00:48:37;;;;;;;10.27;9.07;;;;;;;15.10;91.25;101270.53;682503;28;1632;-55
2021/08/12 00:48:58;;;;;;;10.30;9.15;;;;;;;15.11;90.89;101269.66;680268;28;4371;-57
2021/08/12 00:49:20;;;;;;;10.38;9.05;;;;;;;15.10;91.30;101273.16;677661;29;1787;-54
2021/08/12 00:49:43;;;;;;;10.25;9.00;;;;;;;15.09;91.24;101274.03;678118;29;2347;-57
2021/08/12 00:50:08;;;;;;;9.68;8.68;;;;;;;15.11;90.61;101273.13;677725;29;1902;-54
2021/08/12 00:50:30;;;;;;;9.95;8.52;;;;;;;15.13;90.67;101263.47;679058;29;2055;-55
2021/08/12 00:50:51;;;;;;;9.23;8.25;;;;;;;15.20;90.42;101271.28;684215;28;1567;-57
2021/08/12 00:51:14;;;;;;;9.70;8.70;;;;;;;15.18;90.34;101275.72;686293;28;1397;-56
2021/08/12 00:51:39;;;;;;;9.40;8.40;;;;;;;15.21;89.88;101271.25;687530;28;1364;-54
2021/08/12 00:52:00;;;;;;;10.20;8.30;;;;;;;15.23;90.00;101269.47;689467;28;4545;-57
2021/08/12 00:52:21;;;;;;;10.15;8.73;;;;;;;15.24;90.10;101273.81;688027;28;3411;-56
2021/08/12 00:52:43;;;;;;;10.23;8.68;;;;;;;15.22;90.39;101265.09;687438;28;1736;-56
2021/08/12 00:53:04;;;;;;;10.15;8.15;;;;;;;15.25;90.39;101266.81;683955;28;1482;-58
2021/08/12 00:53:25;;;;;;;9.27;8.03;;;;;;;15.26;90.38;101277.31;685630;28;1720;-57
2021/08/12 00:53:45;;;;;;;10.43;8.45;;;;;;;15.25;90.27;101269.44;683119;28;2259;-55
2021/08/12 00:54:06;;;;;;;9.57;8.13;;;;;;;15.25;90.44;101274.72;684862;28;1673;-57
2021/08/12 00:54:27;;;;;;;10.10;8.88;;;;;;;15.22;90.51;101277.41;685865;28;1577;-57
2021/08/12 00:54:50;;;;;;;9.90;8.90;;;;;;;15.20;90.39;101272.13;685530;28;1563;-57
2021/08/12 00:55:11;;;;;;;9.70;8.70;;;;;;;15.20;90.18;101271.28;687044;28;4624;-57
2021/08/12 00:55:32;;;;;;;10.05;9.05;;;;;;;15.18;90.45;101270.44;685753;28;1720;-57
2021/08/12 00:55:52;;;;;;;10.83;9.03;;;;;;;15.13;90.77;101275.75;682300;28;1729;-56
2021/08/12 00:56:13;;;;;;;10.60;8.75;;;;;;;15.10;90.78;101275.78;681080;28;1553;-56
2021/08/12 00:56:34;;;;;;;10.02;8.93;;;;;;;15.10;90.38;101271.38;680041;28;1347;-55
2021/08/12 00:56:55;;;;;;;9.55;8.55;;;;;;;15.13;90.21;101274.00;681528;28;4238;-55
2021/08/12 00:57:19;;;;;;;9.27;8.32;;;;;;;15.16;90.00;101270.47;680554;28;1789;-56
2021/08/12 00:57:40;;;;;;;9.25;8.25;;;;;;;15.21;89.72;101273.88;682812;28;1478;-56
2021/08/12 00:58:03;;;;;;;9.35;8.35;;;;;;;15.24;89.36;101276.47;680723;28;4366;-55
2021/08/12 00:58:23;;;;;;;10.57;8.13;;;;;;;15.25;89.22;101270.31;682744;28;1526;-57
2021/08/12 00:58:44;;;;;;;10.27;7.97;;;;;;;15.28;88.89;101272.88;682808;28;1983;-55
2021/08/12 00:59:05;;;;;;;10.32;8.00;;;;;;;15.32;88.94;101274.59;680273;28;1593;-56
2021/08/12 00:59:31;;;;;;;9.23;8.30;;;;;;;15.38;88.51;101270.13;680439;28;1806;-56
2021/08/12 00:59:51;;;;;;;8.75;7.85;;;;;;;15.43;88.47;101276.22;680456;28;1553;-56
2021/08/12 01:00:14;;;;;;;9.80;7.97;;;;;;;15.40;88.53;101279.75;683951;28;1274;-55
2021/08/12 01:00:36;;;;;;;10.25;8.43;;;;;;;15.40;88.70;101269.22;684840;28;1379;-55
2021/08/12 01:00:58;;;;;;;10.18;8.48;;;;;;;15.38;89.10;101281.56;684471;28;4544;-55
2021/08/12 01:01:18;;;;;;;9.95;8.57;;;;;;;15.33;89.04;101273.69;687343;28;4039;-57
2021/08/12 01:01:39;;;;;;;9.73;8.52;;;;;;;15.28;89.23;101278.16;685828;28;1934;-55
2021/08/12 01:02:02;;;;;;;10.40;8.60;;;;;;;15.25;89.69;101282.63;684329;28;1671;-56
2021/08/12 01:02:23;;;;;;;12.23;8.50;;;;;;;15.24;89.61;101272.97;685110;28;1482;-57
2021/08/12 01:02:43;;;;;;;11.13;8.60;;;;;;;15.23;89.91;101274.75;686827;28;1519;-54
2021/08/12 01:03:09;;;;;;;11.27;8.45;;;;;;;15.20;90.27;101276.53;686807;28;1558;-55
2021/08/12 01:03:30;;;;;;;10.43;9.07;;;;;;;15.15;90.35;101276.63;683622;28;1894;-56
2021/08/12 01:03:51;;;;;;;10.27;9.18;;;;;;;15.16;89.75;101278.38;683010;28;1532;-56
2021/08/12 01:04:11;;;;;;;10.10;9.00;;;;;;;15.20;89.66;101276.53;683309;28;4570;-54
2021/08/12 01:04:33;;;;;;;9.52;8.52;;;;;;;15.23;89.93;101273.84;683408;28;1493;-56
2021/08/12 01:04:54;;;;;;;10.15;8.63;;;;;;;15.21;90.03;101268.59;683847;28;1302;-52
2021/08/12 01:05:17;;;;;;;9.93;8.65;;;;;;;15.21;90.33;101279.16;683578;28;1456;-56
2021/08/12 01:05:56;;;;;;;11.25;8.98;;;;;;;15.19;90.66;101270.41;685427;28;3901;-56
2021/08/12 01:06:26;;;;;;;10.75;9.13;;;;;;;15.18;90.76;101267.81;687437;28;1687;-56
2021/08/12 01:06:56;;;;;;;10.88;8.98;;;;;;;15.17;90.51;101271.31;687235;28;2059;-57
2021/08/12 01:07:56;;;;;;;9.68;8.57;;;;;;;15.16;90.46;101275.72;688969;28;4903;-56
2021/08/12 01:08:29;;;;;;;10.43;9.02;;;;;;;15.14;90.47;101267.81;691869;28;1756;-56
2021/08/12 01:09:06;;;;;;;10.02;8.70;;;;;;;15.18;89.87;101271.28;694912;28;1544;-57
2021/08/12 01:10:05;;;;;;;11.00;8.80;;;;;;;15.17;90.30;101272.19;695179;28;1350;-56
2021/08/12 01:10:43;;;;;;;10.13;8.32;;;;;;;15.15;90.44;101268.72;688900;28;4990;-56
2021/08/12 01:11:25;;;;;;;10.15;8.20;;;;;;;15.14;90.26;101272.22;688828;28;1713;-56
2021/08/12 01:11:56;;;;;;;11.10;8.98;;;;;;;15.13;90.27;101275.75;690399;28;1549;-57
2021/08/12 01:12:27;;;;;;;9.45;8.50;;;;;;;15.17;90.41;101276.59;686626;28;1464;-56
2021/08/12 01:13:10;;;;;;;10.07;8.65;;;;;;;15.15;90.51;101276.63;688621;28;1497;-57
2021/08/12 01:14:03;;;;;;;9.73;8.63;;;;;;;15.10;91.01;101276.66;688697;28;5019;-56
2021/08/12 01:14:43;;;;;;;10.20;8.85;;;;;;;15.02;90.88;101275.03;693788;28;1104;-55
2021/08/12 01:15:07;;;;;;;10.45;8.48;;;;;;;15.02;90.89;101277.66;690896;28;1696;-56
2021/08/12 01:15:40;;;;;;;9.85;8.85;;;;;;;15.04;90.80;101282.03;690430;28;1582;-56
2021/08/12 01:16:06;;;;;;;9.88;8.45;;;;;;;15.06;90.82;101282.00;691217;28;4473;-55
2021/08/12 01:16:33;;;;;;;10.25;8.80;;;;;;;15.07;90.86;101275.84;688269;28;1679;-57
2021/08/12 01:17:03;;;;;;;10.15;9.10;;;;;;;15.04;90.84;101281.16;688880;28;1581;-55
2021/08/12 01:17:34;;;;;;;10.07;8.98;;;;;;;15.06;90.69;101274.97;686357;28;1540;-57
2021/08/12 01:18:03;;;;;;;9.85;8.85;;;;;;;15.13;89.80;101283.66;686324;28;1097;-56
2021/08/12 01:18:29;;;;;;;9.15;8.07;;;;;;;15.12;90.19;101279.28;687257;28;1415;-56
2021/08/12 01:18:59;;;;;;;10.13;8.48;;;;;;;15.08;90.38;101288.13;690794;28;4079;-56
2021/08/12 01:19:51;;;;;;;9.70;8.55;;;;;;;15.08;90.65;101288.13;689291;28;5044;-57
2021/08/12 01:20:45;;;;;;;9.85;8.30;;;;;;;15.05;90.61;101280.25;691196;28;1633;-57
2021/08/12 01:21:20;;;;;;;10.45;9.00;;;;;;;15.00;90.93;101287.34;683818;28;1557;-55
2021/08/12 01:22:03;;;;;;;10.45;8.95;;;;;;;15.00;90.75;101284.72;684162;28;1922;-56
2021/08/12 01:22:25;;;;;;;10.43;8.60;;;;;;;15.00;91.00;101284.72;688426;28;5068;-57
2021/08/12 01:22:48;;;;;;;11.20;8.60;;;;;;;14.97;91.35;101283.00;687069;28;1309;-54
2021/08/12 01:23:12;;;;;;;10.00;8.82;;;;;;;14.95;91.71;101287.41;685117;28;1470;-53
2021/08/12 01:23:35;;;;;;;10.35;9.00;;;;;;;14.91;91.75;101283.06;682007;28;4491;-55
2021/08/12 01:24:04;;;;;;;10.13;8.90;;;;;;;14.90;91.84;101289.25;680049;29;1791;-57
2021/08/12 01:24:28;;;;;;;10.35;9.10;;;;;;;14.89;91.55;101288.34;681792;28;1324;-57
2021/08/12 01:24:53;;;;;;;10.13;8.88;;;;;;;14.93;91.24;101287.41;682850;28;2194;-55
2021/08/12 01:25:22;;;;;;;10.48;8.50;;;;;;;14.97;91.03;101291.75;682643;28;4383;-56
2021/08/12 01:25:47;;;;;;;9.43;8.32;;;;;;;15.01;90.73;101284.69;685522;28;1987;-55
2021/08/12 01:26:10;;;;;;;10.07;8.35;;;;;;;15.00;90.80;101290.84;683262;28;1511;-56
2021/08/12 01:26:33;;;;;;;10.43;9.07;;;;;;;14.94;91.57;101278.66;682832;28;1349;-54
2021/08/12 01:26:58;;;;;;;11.75;9.32;;;;;;;14.90;91.81;101287.47;682822;28;2246;-56
2021/08/12 01:27:22;;;;;;;10.75;9.18;;;;;;;14.87;91.74;101281.38;688393;28;1108;-57
2021/08/12 01:27:47;;;;;;;10.93;8.40;;;;;;;14.84;91.92;101286.66;686224;28;4261;-55
2021/08/12 01:28:30;;;;;;;10.50;8.30;;;;;;;14.86;91.94;101283.13;683327;28;4664;-53
2021/08/12 01:28:52;;;;;;;10.02;8.95;;;;;;;14.85;92.18;101280.53;687821;28;1503;-57
2021/08/12 01:29:25;;;;;;;10.57;9.48;;;;;;;14.81;92.35;101282.31;688953;28;1384;-56
2021/08/12 01:30:01;;;;;;;9.55;8.60;;;;;;;14.75;92.49;101285.03;687690;28;1647;-57
2021/08/12 01:30:26;;;;;;;9.52;8.60;;;;;;;14.73;92.54;101281.53;690330;28;1573;-57
2021/08/12 01:31:13;;;;;;;11.38;9.07;;;;;;;14.69;92.65;101290.34;687447;28;1455;-52
2021/08/12 01:31:41;;;;;;;10.60;9.10;;;;;;;14.62;92.91;101279.91;685853;28;5050;-56
2021/08/12 01:32:12;;;;;;;10.75;8.80;;;;;;;14.61;92.97;101283.41;685597;28;1445;-56
2021/08/12 01:32:40;;;;;;;10.38;8.73;;;;;;;14.60;93.02;101284.28;688286;28;4397;-55
2021/08/12 01:33:24;;;;;;;11.15;9.27;;;;;;;14.58;92.93;101283.44;691379;28;1935;-55
2021/08/12 01:34:10;;;;;;;10.95;9.23;;;;;;;14.56;92.98;101285.19;694429;28;1632;-55
2021/08/12 01:34:53;;;;;;;10.82;8.57;;;;;;;14.55;92.86;101280.84;692140;28;6256;-57
2021/08/12 01:35:16;;;;;;;10.48;8.77;;;;;;;14.56;93.01;101284.34;690779;28;1484;-56
2021/08/12 01:35:38;;;;;;;10.43;8.90;;;;;;;14.54;92.94;101281.72;687420;28;1605;-57
2021/08/12 01:36:01;;;;;;;10.75;8.98;;;;;;;14.53;93.39;101279.13;687167;28;1366;-54
2021/08/12 01:36:23;;;;;;;10.63;9.15;;;;;;;14.53;93.27;101282.59;689540;28;1540;-56
2021/08/12 01:36:46;;;;;;;10.85;8.90;;;;;;;14.53;93.16;101279.97;685415;28;4108;-56
2021/08/12 01:37:13;;;;;;;10.50;9.05;;;;;;;14.52;93.24;101285.25;687090;28;4399;-57
2021/08/12 01:37:38;;;;;;;10.75;9.00;;;;;;;14.54;92.92;101280.84;685004;28;2460;-57
2021/08/12 01:38:02;;;;;;;11.23;8.95;;;;;;;14.53;93.25;101281.75;685509;28;1548;-56
2021/08/12 01:38:27;;;;;;;10.73;9.30;;;;;;;14.51;93.54;101284.41;681710;28;1641;-56
2021/08/12 01:38:50;;;;;;;10.85;9.18;;;;;;;14.50;93.88;101282.66;685927;28;1512;-57
2021/08/12 01:39:15;;;;;;;11.50;9.57;;;;;;;14.46;94.06;101275.69;686607;28;1579;-54
2021/08/12 01:39:39;;;;;;;10.70;9.50;;;;;;;14.45;94.01;101273.94;687451;28;2767;-56
2021/08/12 01:40:07;;;;;;;10.75;9.48;;;;;;;14.46;93.54;101276.53;684298;28;4652;-55
2021/08/12 01:40:30;;;;;;;11.02;9.15;;;;;;;14.50;93.29;101277.38;682922;28;1343;-56
2021/08/12 01:40:54;;;;;;;10.82;9.00;;;;;;;14.52;93.53;101278.22;687034;28;1795;-56
2021/08/12 01:41:17;;;;;;;11.23;9.48;;;;;;;14.53;93.24;101272.09;689968;28;1916;-55
2021/08/12 01:41:38;;;;;;;11.15;9.02;;;;;;;14.56;92.84;101273.81;687759;28;1914;-55
2021/08/12 01:41:59;;;;;;;10.02;8.48;;;;;;;14.62;92.18;101285.19;688082;28;1637;-57
2021/08/12 01:42:26;;;;;;;10.45;8.65;;;;;;;14.68;92.10;101272.84;685214;28;1412;-56
2021/08/12 01:42:49;;;;;;;11.18;9.23;;;;;;;14.69;92.20;101280.72;685205;28;4239;-55
2021/08/12 01:43:19;;;;;;;10.25;8.63;;;;;;;14.69;92.07;101278.09;683759;28;4622;-57
2021/08/12 01:43:42;;;;;;;11.70;8.75;;;;;;;14.69;91.86;101274.56;687798;28;1944;-57
2021/08/12 01:44:04;;;;;;;10.70;8.40;;;;;;;14.72;91.64;101279.81;688241;28;1182;-57
2021/08/12 01:44:31;;;;;;;9.50;8.23;;;;;;;14.74;91.60;101278.03;684692;28;1487;-55
2021/08/12 01:44:55;;;;;;;10.80;8.38;;;;;;;14.74;91.76;101286.78;685679;28;1316;-56
2021/08/12 01:45:19;;;;;;;9.75;8.65;;;;;;;14.72;91.69;101278.03;685261;28;1378;-55
2021/08/12 01:45:39;;;;;;;9.52;8.48;;;;;;;14.68;91.74;101280.75;684895;28;4366;-56
2021/08/12 01:46:04;;;;;;;9.55;8.55;;;;;;;14.67;91.56;101281.63;685255;28;4669;-57
2021/08/12 01:46:27;;;;;;;9.73;8.60;;;;;;;14.63;91.97;101279.03;686842;28;1421;-56
2021/08/12 01:46:48;;;;;;;10.18;9.18;;;;;;;14.59;92.38;101285.19;688650;28;1574;-57
2021/08/12 01:47:10;;;;;;;10.95;9.50;;;;;;;14.56;92.64;101276.44;687035;28;1481;-56
2021/08/12 01:47:32;;;;;;;10.43;8.82;;;;;;;14.52;92.51;101278.22;687476;28;1753;-57
2021/08/12 01:47:59;;;;;;;10.18;8.75;;;;;;;14.51;92.79;101275.63;686645;28;1362;-56
2021/08/12 01:48:24;;;;;;;11.05;9.18;;;;;;;14.50;93.07;101268.63;684475;28;1413;-57
2021/08/12 01:48:46;;;;;;;12.00;9.18;;;;;;;14.46;93.14;101273.91;682961;28;4750;-52
2021/08/12 01:49:07;;;;;;;11.10;8.68;;;;;;;14.44;93.26;101265.19;683611;28;4603;-56
2021/08/12 01:49:29;;;;;;;10.60;9.50;;;;;;;14.41;93.33;101267.84;685081;28;2011;-55
2021/08/12 01:49:52;;;;;;;10.73;9.60;;;;;;;14.40;93.61;101270.47;683098;28;1319;-56
2021/08/12 01:50:14;;;;;;;11.52;9.73;;;;;;;14.38;93.59;101261.75;682776;28;1357;-55
2021/08/12 01:50:35;;;;;;;10.80;9.60;;;;;;;14.38;93.35;101264.38;680307;29;2089;-57
2021/08/12 01:50:57;;;;;;;10.98;9.77;;;;;;;14.39;93.71;101263.50;680486;29;1518;-54
2021/08/12 01:51:21;;;;;;;12.00;9.45;;;;;;;14.36;93.78;101266.13;682915;28;1495;-55
2021/08/12 01:51:42;;;;;;;11.77;9.50;;;;;;;14.36;93.72;101263.50;685093;28;4075;-56
2021/08/12 01:52:04;;;;;;;10.60;9.27;;;;;;;14.33;93.55;101267.06;685998;28;4605;-56
2021/08/12 01:52:28;;;;;;;10.48;9.10;;;;;;;14.37;93.12;101265.25;689389;28;1629;-55